sensor_id;sensor_type;location;lat;lon;timestamp;P1;durP1;ratioP1;P2;durP2;ratioP2
23782;SDS011;12071;50.850;4.446;2023-04-25T00:02:12;14.63;;;4.60;;
23782;SDS011;12071;50.850;4.446;2023-04-25T00:04:38;16.42;;;4.90;;
23782;SDS011;12071;50.850;4.446;2023-04-25T00:07:04;11.95;;;3.72;;
23782;SDS011;12071;50.850;4.446;2023-04-25T00:09:29;17.67;;;4.68;;
23782;SDS011;12071;50.850;4.446;2023-04-25T00:11:55;19.55;;;4.65;;
23782;SDS011;12071;50.850;4.446;2023-04-25T00:14:21;16.02;;;3.65;;
23782;SDS011;12071;50.850;4.446;2023-04-25T00:16:48;16.73;;;3.78;;
23782;SDS011;12071;50.850;4.446;2023-04-25T00:19:13;19.23;;;4.45;;
23782;SDS011;12071;50.850;4.446;2023-04-25T00:21:39;12.40;;;3.70;;
23782;SDS011;12071;50.850;4.446;2023-04-25T00:24:06;21.13;;;4.72;;
23782;SDS011;12071;50.850;4.446;2023-04-25T00:26:33;20.27;;;4.95;;
23782;SDS011;12071;50.850;4.446;2023-04-25T00:29:00;14.73;;;3.97;;
23782;SDS011;12071;50.850;4.446;2023-04-25T00:31:26;12.23;;;3.33;;
23782;SDS011;12071;50.850;4.446;2023-04-25T00:33:51;18.35;;;4.10;;
23782;SDS011;12071;50.850;4.446;2023-04-25T00:36:18;16.08;;;3.72;;
23782;SDS011;12071;50.850;4.446;2023-04-25T00:38:44;22.05;;;4.55;;
23782;SDS011;12071;50.850;4.446;2023-04-25T00:41:09;17.92;;;4.38;;
23782;SDS011;12071;50.850;4.446;2023-04-25T00:43:36;15.20;;;3.22;;
23782;SDS011;12071;50.850;4.446;2023-04-25T00:46:02;17.27;;;4.68;;
23782;SDS011;12071;50.850;4.446;2023-04-25T00:48:30;13.60;;;4.28;;
23782;SDS011;12071;50.850;4.446;2023-04-25T00:50:59;16.10;;;4.18;;
23782;SDS011;12071;50.850;4.446;2023-04-25T00:53:25;15.88;;;4.03;;
23782;SDS011;12071;50.850;4.446;2023-04-25T00:55:53;22.42;;;4.22;;
23782;SDS011;12071;50.850;4.446;2023-04-25T00:58:20;19.38;;;4.00;;
23782;SDS011;12071;50.850;4.446;2023-04-25T01:00:47;18.10;;;4.38;;
23782;SDS011;12071;50.850;4.446;2023-04-25T01:03:14;16.40;;;4.13;;
23782;SDS011;12071;50.850;4.446;2023-04-25T01:05:45;17.83;;;4.35;;
23782;SDS011;12071;50.850;4.446;2023-04-25T01:08:12;22.92;;;5.50;;
23782;SDS011;12071;50.850;4.446;2023-04-25T01:10:38;15.68;;;4.40;;
23782;SDS011;12071;50.850;4.446;2023-04-25T01:13:03;18.10;;;5.05;;
23782;SDS011;12071;50.850;4.446;2023-04-25T01:15:29;19.70;;;4.57;;
23782;SDS011;12071;50.850;4.446;2023-04-25T01:17:55;18.02;;;4.60;;
23782;SDS011;12071;50.850;4.446;2023-04-25T01:20:23;24.92;;;5.10;;
23782;SDS011;12071;50.850;4.446;2023-04-25T01:22:52;26.17;;;5.35;;
23782;SDS011;12071;50.850;4.446;2023-04-25T01:25:19;22.98;;;5.25;;
23782;SDS011;12071;50.850;4.446;2023-04-25T01:27:45;21.25;;;5.47;;
23782;SDS011;12071;50.850;4.446;2023-04-25T01:30:11;17.42;;;4.55;;
23782;SDS011;12071;50.850;4.446;2023-04-25T01:32:38;21.02;;;4.90;;
23782;SDS011;12071;50.850;4.446;2023-04-25T01:35:05;25.75;;;5.80;;
23782;SDS011;12071;50.850;4.446;2023-04-25T01:37:35;23.23;;;5.47;;
23782;SDS011;12071;50.850;4.446;2023-04-25T01:40:04;25.45;;;4.88;;
23782;SDS011;12071;50.850;4.446;2023-04-25T01:42:32;21.48;;;5.13;;
23782;SDS011;12071;50.850;4.446;2023-04-25T01:44:59;21.33;;;4.90;;
23782;SDS011;12071;50.850;4.446;2023-04-25T01:47:25;21.90;;;5.10;;
23782;SDS011;12071;50.850;4.446;2023-04-25T01:49:51;19.30;;;5.07;;
23782;SDS011;12071;50.850;4.446;2023-04-25T01:52:17;24.33;;;5.38;;
23782;SDS011;12071;50.850;4.446;2023-04-25T01:54:42;20.55;;;5.07;;
23782;SDS011;12071;50.850;4.446;2023-04-25T01:57:12;22.23;;;5.63;;
23782;SDS011;12071;50.850;4.446;2023-04-25T01:59:38;23.02;;;5.85;;
23782;SDS011;12071;50.850;4.446;2023-04-25T02:02:04;17.73;;;5.82;;
23782;SDS011;12071;50.850;4.446;2023-04-25T02:04:30;23.80;;;6.00;;
23782;SDS011;12071;50.850;4.446;2023-04-25T02:06:56;20.73;;;5.80;;
23782;SDS011;12071;50.850;4.446;2023-04-25T02:09:22;19.17;;;5.80;;
23782;SDS011;12071;50.850;4.446;2023-04-25T02:11:48;21.70;;;5.43;;
23782;SDS011;12071;50.850;4.446;2023-04-25T02:14:17;22.83;;;6.70;;
23782;SDS011;12071;50.850;4.446;2023-04-25T02:16:42;19.52;;;5.40;;
23782;SDS011;12071;50.850;4.446;2023-04-25T02:19:09;17.38;;;6.10;;
23782;SDS011;12071;50.850;4.446;2023-04-25T02:21:35;21.35;;;5.88;;
23782;SDS011;12071;50.850;4.446;2023-04-25T02:24:01;22.77;;;6.53;;
23782;SDS011;12071;50.850;4.446;2023-04-25T02:26:27;24.58;;;6.50;;
23782;SDS011;12071;50.850;4.446;2023-04-25T02:28:52;25.90;;;6.43;;
23782;SDS011;12071;50.850;4.446;2023-04-25T02:31:18;18.33;;;6.70;;
23782;SDS011;12071;50.850;4.446;2023-04-25T02:33:44;18.80;;;6.35;;
23782;SDS011;12071;50.850;4.446;2023-04-25T02:36:09;21.35;;;7.22;;
23782;SDS011;12071;50.850;4.446;2023-04-25T02:38:35;27.90;;;7.00;;
23782;SDS011;12071;50.850;4.446;2023-04-25T02:41:01;22.70;;;7.00;;
23782;SDS011;12071;50.850;4.446;2023-04-25T02:43:26;22.25;;;6.50;;
23782;SDS011;12071;50.850;4.446;2023-04-25T02:45:52;26.30;;;6.90;;
23782;SDS011;12071;50.850;4.446;2023-04-25T02:48:18;21.75;;;7.25;;
23782;SDS011;12071;50.850;4.446;2023-04-25T02:50:44;14.48;;;7.05;;
23782;SDS011;12071;50.850;4.446;2023-04-25T02:53:10;26.35;;;7.50;;
23782;SDS011;12071;50.850;4.446;2023-04-25T02:55:35;25.92;;;7.38;;
23782;SDS011;12071;50.850;4.446;2023-04-25T02:58:01;24.70;;;6.70;;
23782;SDS011;12071;50.850;4.446;2023-04-25T03:00:27;26.27;;;7.15;;
23782;SDS011;12071;50.850;4.446;2023-04-25T03:02:53;23.23;;;6.82;;
23782;SDS011;12071;50.850;4.446;2023-04-25T03:05:20;19.20;;;6.15;;
23782;SDS011;12071;50.850;4.446;2023-04-25T03:07:46;19.65;;;6.90;;
23782;SDS011;12071;50.850;4.446;2023-04-25T03:10:12;26.13;;;7.05;;
23782;SDS011;12071;50.850;4.446;2023-04-25T03:12:38;24.10;;;6.47;;
23782;SDS011;12071;50.850;4.446;2023-04-25T03:15:04;23.15;;;6.63;;
23782;SDS011;12071;50.850;4.446;2023-04-25T03:17:30;24.70;;;6.57;;
23782;SDS011;12071;50.850;4.446;2023-04-25T03:19:56;20.98;;;6.90;;
23782;SDS011;12071;50.850;4.446;2023-04-25T03:22:25;24.48;;;6.32;;
23782;SDS011;12071;50.850;4.446;2023-04-25T03:24:51;21.50;;;6.07;;
23782;SDS011;12071;50.850;4.446;2023-04-25T03:27:17;24.50;;;6.20;;
23782;SDS011;12071;50.850;4.446;2023-04-25T03:29:42;21.77;;;6.60;;
23782;SDS011;12071;50.850;4.446;2023-04-25T03:32:08;21.77;;;6.03;;
23782;SDS011;12071;50.850;4.446;2023-04-25T03:34:34;14.98;;;6.28;;
23782;SDS011;12071;50.850;4.446;2023-04-25T03:37:00;19.15;;;6.22;;
23782;SDS011;12071;50.850;4.446;2023-04-25T03:39:26;23.30;;;6.20;;
23782;SDS011;12071;50.850;4.446;2023-04-25T03:41:52;17.75;;;5.32;;
23782;SDS011;12071;50.850;4.446;2023-04-25T03:44:17;25.40;;;6.07;;
23782;SDS011;12071;50.850;4.446;2023-04-25T03:46:43;18.42;;;6.20;;
23782;SDS011;12071;50.850;4.446;2023-04-25T03:49:09;19.42;;;6.40;;
23782;SDS011;12071;50.850;4.446;2023-04-25T03:51:34;22.25;;;5.93;;
23782;SDS011;12071;50.850;4.446;2023-04-25T03:54:00;19.90;;;5.90;;
23782;SDS011;12071;50.850;4.446;2023-04-25T03:56:26;23.50;;;6.10;;
23782;SDS011;12071;50.850;4.446;2023-04-25T03:58:52;22.65;;;6.20;;
23782;SDS011;12071;50.850;4.446;2023-04-25T04:01:17;17.58;;;6.13;;
23782;SDS011;12071;50.850;4.446;2023-04-25T04:03:43;23.50;;;5.97;;
23782;SDS011;12071;50.850;4.446;2023-04-25T04:06:09;21.55;;;5.60;;
23782;SDS011;12071;50.850;4.446;2023-04-25T04:08:35;20.42;;;5.55;;
23782;SDS011;12071;50.850;4.446;2023-04-25T04:11:01;17.52;;;5.30;;
23782;SDS011;12071;50.850;4.446;2023-04-25T04:13:27;14.90;;;5.28;;
23782;SDS011;12071;50.850;4.446;2023-04-25T04:15:54;16.15;;;4.97;;
23782;SDS011;12071;50.850;4.446;2023-04-25T04:18:20;18.50;;;5.40;;
23782;SDS011;12071;50.850;4.446;2023-04-25T04:20:47;23.77;;;6.10;;
23782;SDS011;12071;50.850;4.446;2023-04-25T04:23:13;19.55;;;5.78;;
23782;SDS011;12071;50.850;4.446;2023-04-25T04:25:38;21.50;;;5.70;;
23782;SDS011;12071;50.850;4.446;2023-04-25T04:28:05;13.98;;;5.18;;
23782;SDS011;12071;50.850;4.446;2023-04-25T04:30:32;16.42;;;5.00;;
23782;SDS011;12071;50.850;4.446;2023-04-25T04:33:01;13.50;;;5.05;;
23782;SDS011;12071;50.850;4.446;2023-04-25T04:35:28;12.45;;;5.32;;
23782;SDS011;12071;50.850;4.446;2023-04-25T04:37:54;19.70;;;6.03;;
23782;SDS011;12071;50.850;4.446;2023-04-25T04:40:20;17.45;;;5.47;;
23782;SDS011;12071;50.850;4.446;2023-04-25T04:42:46;20.55;;;5.68;;
23782;SDS011;12071;50.850;4.446;2023-04-25T04:45:13;18.10;;;4.97;;
23782;SDS011;12071;50.850;4.446;2023-04-25T04:47:43;18.38;;;4.72;;
23782;SDS011;12071;50.850;4.446;2023-04-25T04:50:09;18.98;;;5.43;;
23782;SDS011;12071;50.850;4.446;2023-04-25T04:52:36;17.20;;;5.05;;
23782;SDS011;12071;50.850;4.446;2023-04-25T04:55:04;14.02;;;5.43;;
23782;SDS011;12071;50.850;4.446;2023-04-25T04:57:30;29.00;;;5.75;;
23782;SDS011;12071;50.850;4.446;2023-04-25T04:59:58;20.27;;;5.07;;
23782;SDS011;12071;50.850;4.446;2023-04-25T05:02:23;17.25;;;5.05;;
23782;SDS011;12071;50.850;4.446;2023-04-25T05:04:52;17.50;;;4.78;;
23782;SDS011;12071;50.850;4.446;2023-04-25T05:07:18;18.48;;;5.80;;
23782;SDS011;12071;50.850;4.446;2023-04-25T05:09:44;15.82;;;5.53;;
23782;SDS011;12071;50.850;4.446;2023-04-25T05:12:10;14.65;;;5.85;;
23782;SDS011;12071;50.850;4.446;2023-04-25T05:14:35;19.77;;;6.20;;
23782;SDS011;12071;50.850;4.446;2023-04-25T05:17:01;17.02;;;6.38;;
23782;SDS011;12071;50.850;4.446;2023-04-25T05:19:32;18.08;;;6.30;;
23782;SDS011;12071;50.850;4.446;2023-04-25T05:21:57;22.77;;;6.55;;
23782;SDS011;12071;50.850;4.446;2023-04-25T05:24:23;15.15;;;5.63;;
23782;SDS011;12071;50.850;4.446;2023-04-25T05:26:49;22.65;;;6.65;;
23782;SDS011;12071;50.850;4.446;2023-04-25T05:29:15;16.83;;;5.72;;
23782;SDS011;12071;50.850;4.446;2023-04-25T05:31:41;11.93;;;5.00;;
23782;SDS011;12071;50.850;4.446;2023-04-25T05:34:06;20.85;;;5.95;;
23782;SDS011;12071;50.850;4.446;2023-04-25T05:36:32;24.73;;;6.68;;
23782;SDS011;12071;50.850;4.446;2023-04-25T05:38:58;16.63;;;4.85;;
23782;SDS011;12071;50.850;4.446;2023-04-25T05:41:24;16.52;;;5.90;;
23782;SDS011;12071;50.850;4.446;2023-04-25T05:43:50;19.33;;;6.05;;
23782;SDS011;12071;50.850;4.446;2023-04-25T05:46:16;20.63;;;5.25;;
23782;SDS011;12071;50.850;4.446;2023-04-25T05:48:44;19.90;;;5.53;;
23782;SDS011;12071;50.850;4.446;2023-04-25T05:51:13;19.75;;;4.88;;
23782;SDS011;12071;50.850;4.446;2023-04-25T05:53:39;16.20;;;5.38;;
23782;SDS011;12071;50.850;4.446;2023-04-25T05:56:04;16.20;;;5.25;;
23782;SDS011;12071;50.850;4.446;2023-04-25T05:58:30;13.95;;;5.22;;
23782;SDS011;12071;50.850;4.446;2023-04-25T06:00:56;15.55;;;5.63;;
23782;SDS011;12071;50.850;4.446;2023-04-25T06:03:21;17.67;;;5.13;;
23782;SDS011;12071;50.850;4.446;2023-04-25T06:05:47;18.75;;;5.65;;
23782;SDS011;12071;50.850;4.446;2023-04-25T06:08:13;16.98;;;5.50;;
23782;SDS011;12071;50.850;4.446;2023-04-25T06:10:39;17.55;;;6.55;;
23782;SDS011;12071;50.850;4.446;2023-04-25T06:13:04;21.08;;;6.28;;
23782;SDS011;12071;50.850;4.446;2023-04-25T06:15:30;20.98;;;6.40;;
23782;SDS011;12071;50.850;4.446;2023-04-25T06:18:00;15.45;;;6.22;;
23782;SDS011;12071;50.850;4.446;2023-04-25T06:20:26;17.73;;;5.85;;
23782;SDS011;12071;50.850;4.446;2023-04-25T06:22:52;26.55;;;6.57;;
23782;SDS011;12071;50.850;4.446;2023-04-25T06:25:17;27.77;;;6.90;;
23782;SDS011;12071;50.850;4.446;2023-04-25T06:27:43;25.33;;;7.00;;
23782;SDS011;12071;50.850;4.446;2023-04-25T06:30:09;23.75;;;6.85;;
23782;SDS011;12071;50.850;4.446;2023-04-25T06:32:37;17.95;;;6.82;;
23782;SDS011;12071;50.850;4.446;2023-04-25T06:35:03;17.08;;;6.32;;
23782;SDS011;12071;50.850;4.446;2023-04-25T06:37:30;26.52;;;7.57;;
23782;SDS011;12071;50.850;4.446;2023-04-25T06:39:56;28.20;;;7.80;;
23782;SDS011;12071;50.850;4.446;2023-04-25T06:42:21;24.08;;;7.55;;
23782;SDS011;12071;50.850;4.446;2023-04-25T06:44:47;20.02;;;7.47;;
23782;SDS011;12071;50.850;4.446;2023-04-25T06:47:13;21.40;;;6.22;;
23782;SDS011;12071;50.850;4.446;2023-04-25T06:49:42;21.65;;;6.70;;
23782;SDS011;12071;50.850;4.446;2023-04-25T06:52:07;25.98;;;6.82;;
23782;SDS011;12071;50.850;4.446;2023-04-25T06:54:33;16.70;;;5.97;;
23782;SDS011;12071;50.850;4.446;2023-04-25T06:56:59;20.77;;;5.78;;
23782;SDS011;12071;50.850;4.446;2023-04-25T06:59:26;19.38;;;5.70;;
23782;SDS011;12071;50.850;4.446;2023-04-25T07:01:51;17.42;;;6.38;;
23782;SDS011;12071;50.850;4.446;2023-04-25T07:04:17;15.13;;;5.50;;
23782;SDS011;12071;50.850;4.446;2023-04-25T07:06:44;16.30;;;5.32;;
23782;SDS011;12071;50.850;4.446;2023-04-25T07:09:12;15.93;;;5.13;;
23782;SDS011;12071;50.850;4.446;2023-04-25T07:11:37;18.40;;;4.30;;
23782;SDS011;12071;50.850;4.446;2023-04-25T07:14:03;23.33;;;4.70;;
23782;SDS011;12071;50.850;4.446;2023-04-25T07:16:29;17.80;;;5.35;;
23782;SDS011;12071;50.850;4.446;2023-04-25T07:18:55;17.70;;;4.45;;
23782;SDS011;12071;50.850;4.446;2023-04-25T07:21:21;14.45;;;4.07;;
23782;SDS011;12071;50.850;4.446;2023-04-25T07:23:46;14.25;;;3.88;;
23782;SDS011;12071;50.850;4.446;2023-04-25T07:26:12;13.20;;;3.58;;
23782;SDS011;12071;50.850;4.446;2023-04-25T07:28:38;19.55;;;4.47;;
23782;SDS011;12071;50.850;4.446;2023-04-25T07:31:04;21.02;;;3.65;;
23782;SDS011;12071;50.850;4.446;2023-04-25T07:33:30;8.75;;;3.10;;
23782;SDS011;12071;50.850;4.446;2023-04-25T07:35:56;20.38;;;3.78;;
23782;SDS011;12071;50.850;4.446;2023-04-25T07:38:22;16.98;;;4.03;;
23782;SDS011;12071;50.850;4.446;2023-04-25T07:40:48;14.70;;;3.92;;
23782;SDS011;12071;50.850;4.446;2023-04-25T07:43:14;11.88;;;3.17;;
23782;SDS011;12071;50.850;4.446;2023-04-25T07:45:42;13.73;;;3.35;;
23782;SDS011;12071;50.850;4.446;2023-04-25T07:48:08;15.45;;;3.50;;
23782;SDS011;12071;50.850;4.446;2023-04-25T07:50:41;10.88;;;3.05;;
23782;SDS011;12071;50.850;4.446;2023-04-25T07:53:06;13.93;;;3.20;;
23782;SDS011;12071;50.850;4.446;2023-04-25T07:55:32;11.93;;;2.97;;
23782;SDS011;12071;50.850;4.446;2023-04-25T07:57:58;19.08;;;3.53;;
23782;SDS011;12071;50.850;4.446;2023-04-25T08:00:23;12.95;;;3.00;;
23782;SDS011;12071;50.850;4.446;2023-04-25T08:02:49;8.73;;;2.45;;
23782;SDS011;12071;50.850;4.446;2023-04-25T08:05:16;14.70;;;3.65;;
23782;SDS011;12071;50.850;4.446;2023-04-25T08:07:41;19.08;;;3.10;;
23782;SDS011;12071;50.850;4.446;2023-04-25T08:10:08;14.77;;;2.90;;
23782;SDS011;12071;50.850;4.446;2023-04-25T08:12:34;12.90;;;3.45;;
23782;SDS011;12071;50.850;4.446;2023-04-25T08:14:59;10.25;;;2.63;;
23782;SDS011;12071;50.850;4.446;2023-04-25T08:17:25;10.10;;;2.65;;
23782;SDS011;12071;50.850;4.446;2023-04-25T08:19:51;7.85;;;2.53;;
23782;SDS011;12071;50.850;4.446;2023-04-25T08:22:16;7.93;;;2.50;;
23782;SDS011;12071;50.850;4.446;2023-04-25T08:24:42;10.68;;;2.88;;
23782;SDS011;12071;50.850;4.446;2023-04-25T08:27:08;9.23;;;2.55;;
23782;SDS011;12071;50.850;4.446;2023-04-25T08:29:34;13.02;;;2.15;;
23782;SDS011;12071;50.850;4.446;2023-04-25T08:31:59;11.98;;;2.63;;
23782;SDS011;12071;50.850;4.446;2023-04-25T08:34:26;15.75;;;2.80;;
23782;SDS011;12071;50.850;4.446;2023-04-25T08:36:51;9.50;;;3.03;;
23782;SDS011;12071;50.850;4.446;2023-04-25T08:39:17;10.90;;;3.00;;
23782;SDS011;12071;50.850;4.446;2023-04-25T08:41:43;12.82;;;2.58;;
23782;SDS011;12071;50.850;4.446;2023-04-25T08:44:10;10.98;;;3.08;;
23782;SDS011;12071;50.850;4.446;2023-04-25T08:46:37;14.07;;;3.80;;
23782;SDS011;12071;50.850;4.446;2023-04-25T08:49:05;9.73;;;2.70;;
23782;SDS011;12071;50.850;4.446;2023-04-25T08:51:34;11.43;;;2.80;;
23782;SDS011;12071;50.850;4.446;2023-04-25T08:54:19;10.60;;;2.47;;
23782;SDS011;12071;50.850;4.446;2023-04-25T08:56:48;9.52;;;2.30;;
23782;SDS011;12071;50.850;4.446;2023-04-25T08:59:14;10.13;;;2.30;;
23782;SDS011;12071;50.850;4.446;2023-04-25T09:01:40;6.22;;;2.42;;
23782;SDS011;12071;50.850;4.446;2023-04-25T09:04:06;11.60;;;2.45;;
23782;SDS011;12071;50.850;4.446;2023-04-25T09:06:31;12.27;;;2.53;;
23782;SDS011;12071;50.850;4.446;2023-04-25T09:09:06;10.75;;;2.50;;
23782;SDS011;12071;50.850;4.446;2023-04-25T09:11:33;10.00;;;2.50;;
23782;SDS011;12071;50.850;4.446;2023-04-25T09:14:16;10.63;;;2.60;;
23782;SDS011;12071;50.850;4.446;2023-04-25T09:19:29;12.25;;;2.47;;
23782;SDS011;12071;50.850;4.446;2023-04-25T09:22:05;12.38;;;2.42;;
23782;SDS011;12071;50.850;4.446;2023-04-25T09:24:49;9.15;;;2.35;;
23782;SDS011;12071;50.850;4.446;2023-04-25T09:27:19;16.25;;;2.47;;
23782;SDS011;12071;50.850;4.446;2023-04-25T09:29:50;10.57;;;2.10;;
23782;SDS011;12071;50.850;4.446;2023-04-25T09:32:23;11.77;;;2.50;;
23782;SDS011;12071;50.850;4.446;2023-04-25T09:34:51;6.68;;;1.90;;
23782;SDS011;12071;50.850;4.446;2023-04-25T09:37:18;13.38;;;2.65;;
23782;SDS011;12071;50.850;4.446;2023-04-25T09:39:49;8.63;;;1.93;;
23782;SDS011;12071;50.850;4.446;2023-04-25T09:42:16;8.57;;;1.92;;
23782;SDS011;12071;50.850;4.446;2023-04-25T09:44:43;10.27;;;2.03;;
23782;SDS011;12071;50.850;4.446;2023-04-25T09:47:11;9.00;;;1.90;;
23782;SDS011;12071;50.850;4.446;2023-04-25T09:49:39;7.95;;;1.98;;
23782;SDS011;12071;50.850;4.446;2023-04-25T09:52:09;11.65;;;2.20;;
23782;SDS011;12071;50.850;4.446;2023-04-25T09:54:39;6.93;;;2.03;;
23782;SDS011;12071;50.850;4.446;2023-04-25T09:57:09;8.10;;;1.90;;
23782;SDS011;12071;50.850;4.446;2023-04-25T09:59:42;10.82;;;1.98;;
23782;SDS011;12071;50.850;4.446;2023-04-25T10:04:47;9.70;;;1.95;;
23782;SDS011;12071;50.850;4.446;2023-04-25T10:07:16;8.20;;;1.98;;
23782;SDS011;12071;50.850;4.446;2023-04-25T10:09:43;6.72;;;2.35;;
23782;SDS011;12071;50.850;4.446;2023-04-25T10:12:14;8.35;;;2.40;;
23782;SDS011;12071;50.850;4.446;2023-04-25T10:14:41;13.20;;;2.33;;
23782;SDS011;12071;50.850;4.446;2023-04-25T10:17:08;15.65;;;2.42;;
23782;SDS011;12071;50.850;4.446;2023-04-25T10:19:36;7.80;;;2.22;;
23782;SDS011;12071;50.850;4.446;2023-04-25T10:22:13;8.63;;;2.13;;
23782;SDS011;12071;50.850;4.446;2023-04-25T10:24:55;9.93;;;1.90;;
23782;SDS011;12071;50.850;4.446;2023-04-25T10:27:22;7.53;;;2.17;;
23782;SDS011;12071;50.850;4.446;2023-04-25T10:32:49;11.05;;;2.20;;
23782;SDS011;12071;50.850;4.446;2023-04-25T10:35:19;8.65;;;2.35;;
23782;SDS011;12071;50.850;4.446;2023-04-25T10:38:05;6.28;;;1.30;;
23782;SDS011;12071;50.850;4.446;2023-04-25T10:40:31;5.40;;;1.65;;
23782;SDS011;12071;50.850;4.446;2023-04-25T10:43:34;4.10;;;1.48;;
23782;SDS011;12071;50.850;4.446;2023-04-25T10:46:01;6.93;;;1.50;;
23782;SDS011;12071;50.850;4.446;2023-04-25T10:48:27;4.40;;;1.10;;
23782;SDS011;12071;50.850;4.446;2023-04-25T10:51:15;6.32;;;1.20;;
23782;SDS011;12071;50.850;4.446;2023-04-25T10:56:28;5.97;;;1.52;;
23782;SDS011;12071;50.850;4.446;2023-04-25T11:04:06;9.13;;;2.15;;
23782;SDS011;12071;50.850;4.446;2023-04-25T11:09:28;6.55;;;1.42;;
23782;SDS011;12071;50.850;4.446;2023-04-25T11:11:55;5.78;;;1.55;;
23782;SDS011;12071;50.850;4.446;2023-04-25T11:14:22;5.55;;;1.60;;
23782;SDS011;12071;50.850;4.446;2023-04-25T11:16:57;8.25;;;1.45;;
23782;SDS011;12071;50.850;4.446;2023-04-25T11:19:24;9.75;;;1.63;;
23782;SDS011;12071;50.850;4.446;2023-04-25T11:21:54;6.85;;;1.35;;
23782;SDS011;12071;50.850;4.446;2023-04-25T11:24:31;9.25;;;1.73;;
23782;SDS011;12071;50.850;4.446;2023-04-25T11:26:58;9.25;;;1.45;;
23782;SDS011;12071;50.850;4.446;2023-04-25T11:29:28;9.25;;;2.00;;
23782;SDS011;12071;50.850;4.446;2023-04-25T11:31:54;7.18;;;1.38;;
23782;SDS011;12071;50.850;4.446;2023-04-25T11:34:22;8.38;;;1.67;;
23782;SDS011;12071;50.850;4.446;2023-04-25T11:36:49;7.82;;;1.30;;
23782;SDS011;12071;50.850;4.446;2023-04-25T11:39:17;6.68;;;1.40;;
23782;SDS011;12071;50.850;4.446;2023-04-25T11:41:43;9.05;;;1.20;;
23782;SDS011;12071;50.850;4.446;2023-04-25T11:44:09;9.23;;;1.52;;
23782;SDS011;12071;50.850;4.446;2023-04-25T11:46:35;9.38;;;1.52;;
23782;SDS011;12071;50.850;4.446;2023-04-25T11:49:01;7.82;;;1.23;;
23782;SDS011;12071;50.850;4.446;2023-04-25T11:51:29;5.72;;;1.42;;
23782;SDS011;12071;50.850;4.446;2023-04-25T11:53:56;4.90;;;1.60;;
23782;SDS011;12071;50.850;4.446;2023-04-25T11:56:22;6.78;;;1.67;;
23782;SDS011;12071;50.850;4.446;2023-04-25T11:58:57;6.63;;;1.52;;
23782;SDS011;12071;50.850;4.446;2023-04-25T12:01:35;5.60;;;1.38;;
23782;SDS011;12071;50.850;4.446;2023-04-25T12:04:16;6.68;;;1.45;;
23782;SDS011;12071;50.850;4.446;2023-04-25T12:06:46;5.40;;;1.50;;
23782;SDS011;12071;50.850;4.446;2023-04-25T12:09:14;3.63;;;1.30;;
23782;SDS011;12071;50.850;4.446;2023-04-25T12:11:43;6.80;;;1.63;;
23782;SDS011;12071;50.850;4.446;2023-04-25T12:14:10;3.92;;;1.17;;
23782;SDS011;12071;50.850;4.446;2023-04-25T12:16:43;7.38;;;1.45;;
23782;SDS011;12071;50.850;4.446;2023-04-25T12:19:13;7.20;;;1.35;;
23782;SDS011;12071;50.850;4.446;2023-04-25T12:21:40;7.78;;;1.95;;
23782;SDS011;12071;50.850;4.446;2023-04-25T12:24:10;4.28;;;1.40;;
23782;SDS011;12071;50.850;4.446;2023-04-25T12:31:59;5.68;;;1.10;;
23782;SDS011;12071;50.850;4.446;2023-04-25T12:34:26;6.60;;;0.98;;
23782;SDS011;12071;50.850;4.446;2023-04-25T12:36:52;3.17;;;1.10;;
23782;SDS011;12071;50.850;4.446;2023-04-25T12:39:20;5.18;;;1.00;;
23782;SDS011;12071;50.850;4.446;2023-04-25T12:41:47;4.35;;;1.10;;
23782;SDS011;12071;50.850;4.446;2023-04-25T12:44:13;5.22;;;0.80;;
23782;SDS011;12071;50.850;4.446;2023-04-25T12:46:40;2.35;;;0.68;;
23782;SDS011;12071;50.850;4.446;2023-04-25T12:49:06;3.30;;;1.00;;
23782;SDS011;12071;50.850;4.446;2023-04-25T12:51:35;4.57;;;0.82;;
23782;SDS011;12071;50.850;4.446;2023-04-25T12:54:01;4.25;;;0.90;;
23782;SDS011;12071;50.850;4.446;2023-04-25T12:56:28;2.08;;;0.98;;
23782;SDS011;12071;50.850;4.446;2023-04-25T12:58:54;2.35;;;0.80;;
23782;SDS011;12071;50.850;4.446;2023-04-25T13:01:20;3.55;;;0.80;;
23782;SDS011;12071;50.850;4.446;2023-04-25T13:03:46;2.83;;;1.00;;
23782;SDS011;12071;50.850;4.446;2023-04-25T13:06:13;6.82;;;1.10;;
23782;SDS011;12071;50.850;4.446;2023-04-25T13:08:38;5.63;;;1.20;;
23782;SDS011;12071;50.850;4.446;2023-04-25T13:11:05;5.47;;;1.17;;
23782;SDS011;12071;50.850;4.446;2023-04-25T13:13:31;6.25;;;1.10;;
23782;SDS011;12071;50.850;4.446;2023-04-25T13:15:57;4.93;;;1.52;;
23782;SDS011;12071;50.850;4.446;2023-04-25T13:18:23;5.93;;;1.30;;
23782;SDS011;12071;50.850;4.446;2023-04-25T13:20:54;5.22;;;1.40;;
23782;SDS011;12071;50.850;4.446;2023-04-25T13:23:20;7.35;;;1.48;;
23782;SDS011;12071;50.850;4.446;2023-04-25T13:25:46;7.30;;;1.65;;
23782;SDS011;12071;50.850;4.446;2023-04-25T13:28:12;7.57;;;1.40;;
23782;SDS011;12071;50.850;4.446;2023-04-25T13:30:38;5.38;;;1.25;;
23782;SDS011;12071;50.850;4.446;2023-04-25T13:33:04;5.68;;;1.17;;
23782;SDS011;12071;50.850;4.446;2023-04-25T13:35:31;4.68;;;1.13;;
23782;SDS011;12071;50.850;4.446;2023-04-25T13:37:58;6.75;;;0.88;;
23782;SDS011;12071;50.850;4.446;2023-04-25T13:40:24;4.43;;;1.02;;
23782;SDS011;12071;50.850;4.446;2023-04-25T13:42:50;8.30;;;1.58;;
23782;SDS011;12071;50.850;4.446;2023-04-25T13:45:16;4.20;;;1.00;;
23782;SDS011;12071;50.850;4.446;2023-04-25T13:47:42;3.67;;;0.98;;
23782;SDS011;12071;50.850;4.446;2023-04-25T13:50:07;6.45;;;1.42;;
23782;SDS011;12071;50.850;4.446;2023-04-25T13:52:34;4.45;;;1.00;;
23782;SDS011;12071;50.850;4.446;2023-04-25T13:55:00;3.33;;;0.75;;
23782;SDS011;12071;50.850;4.446;2023-04-25T13:57:28;3.42;;;0.95;;
23782;SDS011;12071;50.850;4.446;2023-04-25T13:59:55;10.10;;;1.30;;
23782;SDS011;12071;50.850;4.446;2023-04-25T14:02:21;5.35;;;1.40;;
23782;SDS011;12071;50.850;4.446;2023-04-25T14:04:46;5.05;;;1.00;;
23782;SDS011;12071;50.850;4.446;2023-04-25T14:07:12;3.00;;;0.95;;
23782;SDS011;12071;50.850;4.446;2023-04-25T14:09:41;3.13;;;0.90;;
23782;SDS011;12071;50.850;4.446;2023-04-25T14:12:06;5.07;;;1.13;;
23782;SDS011;12071;50.850;4.446;2023-04-25T14:14:32;3.35;;;1.08;;
23782;SDS011;12071;50.850;4.446;2023-04-25T14:16:58;4.18;;;1.00;;
23782;SDS011;12071;50.850;4.446;2023-04-25T14:19:23;4.78;;;1.10;;
23782;SDS011;12071;50.850;4.446;2023-04-25T14:21:49;6.40;;;1.10;;
23782;SDS011;12071;50.850;4.446;2023-04-25T14:24:15;4.10;;;0.90;;
23782;SDS011;12071;50.850;4.446;2023-04-25T14:26:40;3.25;;;0.82;;
23782;SDS011;12071;50.850;4.446;2023-04-25T14:29:07;3.28;;;0.90;;
23782;SDS011;12071;50.850;4.446;2023-04-25T14:31:33;6.88;;;1.13;;
23782;SDS011;12071;50.850;4.446;2023-04-25T14:33:59;5.78;;;0.82;;
23782;SDS011;12071;50.850;4.446;2023-04-25T14:36:25;4.32;;;0.80;;
23782;SDS011;12071;50.850;4.446;2023-04-25T14:38:52;3.40;;;1.00;;
23782;SDS011;12071;50.850;4.446;2023-04-25T14:41:18;4.50;;;0.93;;
23782;SDS011;12071;50.850;4.446;2023-04-25T14:43:44;3.67;;;0.98;;
23782;SDS011;12071;50.850;4.446;2023-04-25T14:46:10;5.93;;;0.90;;
23782;SDS011;12071;50.850;4.446;2023-04-25T14:48:36;4.57;;;1.23;;
23782;SDS011;12071;50.850;4.446;2023-04-25T14:51:01;8.95;;;1.10;;
23782;SDS011;12071;50.850;4.446;2023-04-25T14:53:27;4.90;;;1.02;;
23782;SDS011;12071;50.850;4.446;2023-04-25T14:55:54;8.93;;;1.33;;
23782;SDS011;12071;50.850;4.446;2023-04-25T14:58:20;5.95;;;1.17;;
23782;SDS011;12071;50.850;4.446;2023-04-25T15:00:46;5.47;;;1.10;;
23782;SDS011;12071;50.850;4.446;2023-04-25T15:03:12;2.38;;;0.63;;